createdAt,value
2023-05-13T00:01:10.784Z,5.20
2023-05-13T00:03:37.901Z,6.07
2023-05-13T00:06:04.465Z,6.13
2023-05-13T00:08:30.804Z,6.18
2023-05-13T00:10:57.049Z,5.28
2023-05-13T00:13:23.270Z,5.32
2023-05-13T00:15:49.631Z,5.63
2023-05-13T00:18:15.942Z,5.70
2023-05-13T00:20:42.942Z,5.80
2023-05-13T00:23:09.842Z,5.95
2023-05-13T00:25:37.804Z,5.82
2023-05-13T00:28:04.050Z,5.88
2023-05-13T00:30:30.298Z,5.47
2023-05-13T00:32:57.495Z,5.20
2023-05-13T00:35:23.811Z,5.68
2023-05-13T00:37:50.104Z,6.05
2023-05-13T00:40:17.802Z,5.57
2023-05-13T00:42:44.070Z,5.65
2023-05-13T00:45:10.908Z,5.32
2023-05-13T00:47:39.097Z,5.50
2023-05-13T00:50:05.365Z,5.47
2023-05-13T00:52:31.803Z,5.50
2023-05-13T00:55:00.119Z,5.50
2023-05-13T00:57:26.576Z,5.90
2023-05-13T00:59:52.807Z,6.07
2023-05-13T01:02:19.099Z,5.70
2023-05-13T01:04:46.816Z,5.82
2023-05-13T01:07:13.074Z,5.68
2023-05-13T01:09:39.387Z,5.88
2023-05-13T01:12:05.900Z,6.20
2023-05-13T01:14:32.169Z,5.95
2023-05-13T01:16:58.943Z,5.97
2023-05-13T01:19:25.446Z,5.65
2023-05-13T01:21:51.862Z,5.80
2023-05-13T01:24:18.129Z,6.20
2023-05-13T01:26:44.440Z,6.13
2023-05-13T01:29:10.676Z,5.72
2023-05-13T01:31:36.936Z,6.10
2023-05-13T01:34:03.251Z,6.07
2023-05-13T01:36:29.489Z,5.63
2023-05-13T01:38:55.800Z,6.43
2023-05-13T01:41:22.038Z,6.15
2023-05-13T01:43:48.392Z,6.10
2023-05-13T01:46:14.708Z,6.28
2023-05-13T01:48:40.941Z,6.32
2023-05-13T01:51:07.393Z,6.20
2023-05-13T01:53:33.673Z,5.82
2023-05-13T01:56:00.019Z,5.97
2023-05-13T01:58:26.965Z,5.88
2023-05-13T02:00:53.229Z,5.70
2023-05-13T02:03:20.990Z,5.72
2023-05-13T02:05:47.313Z,5.60
2023-05-13T02:08:13.522Z,6.43
2023-05-13T02:10:39.785Z,5.85
2023-05-13T02:13:06.053Z,6.10
2023-05-13T02:15:32.521Z,5.85
2023-05-13T02:17:58.854Z,5.68
2023-05-13T02:20:25.580Z,6.43
2023-05-13T02:22:52.173Z,5.88
2023-05-13T02:25:18.517Z,5.60
2023-05-13T02:27:44.876Z,5.78
2023-05-13T02:30:11.118Z,5.53
2023-05-13T02:32:37.396Z,6.10
2023-05-13T02:35:03.704Z,5.78
2023-05-13T02:37:30.024Z,6.05
2023-05-13T02:39:56.303Z,6.10
2023-05-13T02:42:22.551Z,6.70
2023-05-13T02:44:48.846Z,5.63
2023-05-13T02:47:15.745Z,5.43
2023-05-13T02:49:42.012Z,5.80
2023-05-13T02:52:08.315Z,5.85
2023-05-13T02:54:34.547Z,6.07
2023-05-13T02:57:00.792Z,5.95
2023-05-13T02:59:29.063Z,6.15
2023-05-13T03:01:55.312Z,6.30
2023-05-13T03:04:21.552Z,6.43
2023-05-13T03:06:52.697Z,5.75
2023-05-13T03:09:18.996Z,6.20
2023-05-13T03:11:50.928Z,5.68
2023-05-13T03:14:23.289Z,6.38
2023-05-13T03:16:49.520Z,6.30
2023-05-13T03:19:15.849Z,6.65
2023-05-13T03:21:42.173Z,6.38
2023-05-13T03:24:08.448Z,5.70
2023-05-13T03:26:34.705Z,6.40
2023-05-13T03:29:02.277Z,6.10
2023-05-13T03:31:28.765Z,7.07
2023-05-13T03:33:55.049Z,6.65
2023-05-13T03:36:22.249Z,5.75
2023-05-13T03:38:48.640Z,6.00
2023-05-13T03:41:14.935Z,6.47
2023-05-13T03:43:41.184Z,6.10
2023-05-13T03:46:07.823Z,6.40
2023-05-13T03:48:34.220Z,6.78
2023-05-13T03:51:00.459Z,6.40
2023-05-13T03:53:26.756Z,6.38
2023-05-13T03:55:53.600Z,5.85
2023-05-13T03:58:20.118Z,6.03
2023-05-13T04:00:46.449Z,5.82
2023-05-13T04:03:12.800Z,6.28
2023-05-13T04:05:39.387Z,6.05
2023-05-13T04:08:05.675Z,6.07
2023-05-13T04:10:31.944Z,6.70
2023-05-13T04:13:02.697Z,5.50
2023-05-13T04:15:28.968Z,5.80
2023-05-13T04:17:55.233Z,6.40
2023-05-13T04:20:21.724Z,6.65
2023-05-13T04:22:48.123Z,6.45
2023-05-13T04:25:14.373Z,6.60
2023-05-13T04:27:41.770Z,6.40
2023-05-13T04:30:08.068Z,6.82
2023-05-13T04:32:34.362Z,6.35
2023-05-13T04:35:01.335Z,5.60
2023-05-13T04:37:28.948Z,6.15
2023-05-13T04:39:55.406Z,6.20
2023-05-13T04:42:21.661Z,6.35
2023-05-13T04:44:47.913Z,6.35
2023-05-13T04:47:14.183Z,6.40
2023-05-13T04:49:40.424Z,5.63
2023-05-13T04:52:07.038Z,6.28
2023-05-13T04:54:33.539Z,6.13
2023-05-13T04:56:59.792Z,6.22
2023-05-13T04:59:26.059Z,5.82
2023-05-13T05:01:52.369Z,6.57
2023-05-13T05:04:18.757Z,6.28
2023-05-13T05:06:45.187Z,6.57
2023-05-13T05:09:13.460Z,6.25
2023-05-13T05:11:39.688Z,6.00
2023-05-13T05:14:05.917Z,5.68
2023-05-13T05:16:32.265Z,6.95
2023-05-13T05:18:58.577Z,6.45
2023-05-13T05:21:26.360Z,6.13
2023-05-13T05:23:52.601Z,6.32
2023-05-13T05:26:18.906Z,6.57
2023-05-13T05:28:45.195Z,6.25
2023-05-13T05:31:11.509Z,6.28
2023-05-13T05:33:37.787Z,6.55
2023-05-13T05:36:04.041Z,6.03
2023-05-13T05:38:30.292Z,6.35
2023-05-13T05:40:56.635Z,6.25
2023-05-13T05:43:22.894Z,5.80
2023-05-13T05:45:49.906Z,5.57
2023-05-13T05:48:16.149Z,5.63
2023-05-13T05:50:42.600Z,6.30
2023-05-13T05:53:09.898Z,6.18
2023-05-13T05:55:36.157Z,6.40
2023-05-13T05:58:02.402Z,6.00
2023-05-13T06:00:28.710Z,6.20
2023-05-13T06:02:55.451Z,6.15
2023-05-13T06:05:21.777Z,5.93
2023-05-13T06:07:48.683Z,6.38
2023-05-13T06:10:15.024Z,6.38
2023-05-13T06:12:41.277Z,5.57
2023-05-13T06:15:07.517Z,6.32
2023-05-13T06:17:33.874Z,7.15
2023-05-13T06:20:01.447Z,6.50
2023-05-13T06:22:27.750Z,6.43
2023-05-13T06:24:56.634Z,6.40
2023-05-13T06:27:22.930Z,6.07
2023-05-13T06:29:49.175Z,6.43
2023-05-13T06:32:15.411Z,6.32
2023-05-13T06:34:44.612Z,6.03
2023-05-13T06:37:10.893Z,6.78
2023-05-13T06:39:37.947Z,7.07
2023-05-13T06:42:04.187Z,6.50
2023-05-13T06:44:30.446Z,6.55
2023-05-13T06:46:56.716Z,7.03
2023-05-13T06:49:22.999Z,7.20
2023-05-13T06:51:49.265Z,6.70
2023-05-13T06:54:15.520Z,6.43
2023-05-13T06:56:41.801Z,6.63
2023-05-13T06:59:08.076Z,7.00
2023-05-13T07:01:34.321Z,6.68
2023-05-13T07:04:00.746Z,6.53
2023-05-13T07:06:27.053Z,5.85
2023-05-13T07:08:53.292Z,7.07
2023-05-13T07:11:19.517Z,7.07
2023-05-13T07:13:45.787Z,6.63
2023-05-13T07:16:13.125Z,7.05
2023-05-13T07:18:39.445Z,7.10
2023-05-13T07:21:05.914Z,7.47
2023-05-13T07:23:32.328Z,6.88
2023-05-13T07:25:58.581Z,6.22
2023-05-13T07:28:24.824Z,6.47
2023-05-13T07:30:52.724Z,6.60
2023-05-13T07:33:19.016Z,7.25
2023-05-13T07:35:46.476Z,6.55
2023-05-13T07:38:12.764Z,7.13
2023-05-13T07:40:39.533Z,7.15
2023-05-13T07:43:05.767Z,7.18
2023-05-13T07:45:32.021Z,7.03
2023-05-13T07:47:58.331Z,7.13
2023-05-13T07:50:24.950Z,6.90
2023-05-13T07:52:51.207Z,7.50
2023-05-13T07:55:17.511Z,6.88
2023-05-13T07:57:44.262Z,6.85
2023-05-13T08:00:10.495Z,6.95
2023-05-13T08:02:37.721Z,7.15
2023-05-13T08:05:04.182Z,7.20
2023-05-13T08:07:30.527Z,6.75
2023-05-13T08:09:56.808Z,7.88
2023-05-13T08:12:23.067Z,6.60
2023-05-13T08:14:49.331Z,7.03
2023-05-13T08:17:15.632Z,6.97
2023-05-13T08:19:41.886Z,7.00
2023-05-13T08:22:08.118Z,7.07
2023-05-13T08:24:35.227Z,7.07
2023-05-13T08:27:01.490Z,7.07
2023-05-13T08:29:28.251Z,7.25
2023-05-13T08:31:54.594Z,6.93
2023-05-13T08:34:21.028Z,7.18
2023-05-13T08:36:47.277Z,6.97
2023-05-13T08:39:13.782Z,6.63
2023-05-13T08:41:40.109Z,7.00
2023-05-13T08:44:06.370Z,7.10
2023-05-13T08:46:32.665Z,7.28
2023-05-13T08:49:00.023Z,6.53
2023-05-13T08:51:26.282Z,7.10
2023-05-13T08:53:52.533Z,7.05
2023-05-13T08:56:18.781Z,7.35
2023-05-13T08:58:45.040Z,7.20
2023-05-13T09:01:11.332Z,6.90
2023-05-13T09:03:37.641Z,7.20
2023-05-13T09:06:03.909Z,7.07
2023-05-13T09:08:30.155Z,6.93
2023-05-13T09:10:56.482Z,6.72
2023-05-13T09:13:22.791Z,7.30
2023-05-13T09:15:49.077Z,7.07
2023-05-13T09:18:18.022Z,6.70
2023-05-13T09:20:45.602Z,6.47
2023-05-13T09:23:11.882Z,7.07
2023-05-13T09:25:38.232Z,6.68
2023-05-13T09:28:04.513Z,6.68
2023-05-13T09:30:30.744Z,6.43
2023-05-13T09:32:57.059Z,6.45
2023-05-13T09:35:23.448Z,6.93
2023-05-13T09:37:49.721Z,6.50
2023-05-13T09:40:16.512Z,6.40
2023-05-13T09:42:42.859Z,6.47
2023-05-13T09:45:09.255Z,6.80
2023-05-13T09:47:35.796Z,7.18
2023-05-13T09:50:02.159Z,6.15
2023-05-13T09:55:37.690Z,6.18
2023-05-13T09:58:03.968Z,6.00
2023-05-13T10:00:33.158Z,5.85
2023-05-13T10:03:00.293Z,6.55
2023-05-13T10:05:26.622Z,6.40
2023-05-13T10:07:52.880Z,6.35
2023-05-13T10:10:21.674Z,5.85
2023-05-13T10:12:48.001Z,84.43
2023-05-13T10:15:14.277Z,346.52
2023-05-13T10:17:40.537Z,248.25
2023-05-13T10:20:07.353Z,168.40
2023-05-13T10:22:33.663Z,99.38
2023-05-13T10:24:59.908Z,34.63
2023-05-13T10:27:26.908Z,10.10
2023-05-13T10:29:53.183Z,18.08
2023-05-13T10:32:20.456Z,52.80
2023-05-13T10:34:46.876Z,49.45
2023-05-13T10:37:13.181Z,35.42
2023-05-13T10:39:39.463Z,22.83
2023-05-13T10:42:05.729Z,18.45
2023-05-13T10:44:32.141Z,15.07
2023-05-13T10:46:58.402Z,13.15
2023-05-13T10:49:24.653Z,10.07
2023-05-13T10:51:50.949Z,8.18
2023-05-13T10:54:17.186Z,252.27
2023-05-13T10:56:43.754Z,290.13
2023-05-13T10:59:10.163Z,178.23
2023-05-13T11:01:36.459Z,120.78
2023-05-13T11:04:03.462Z,94.35
2023-05-13T11:06:29.844Z,64.53
2023-05-13T11:08:56.445Z,48.70
2023-05-13T11:11:22.890Z,38.05
2023-05-13T11:13:49.125Z,28.40
2023-05-13T11:16:15.481Z,22.98
2023-05-13T11:18:41.768Z,111.88
2023-05-13T11:21:09.404Z,185.68
2023-05-13T11:23:35.758Z,144.38
2023-05-13T11:26:02.065Z,105.75
2023-05-13T11:28:28.326Z,67.15
2023-05-13T11:30:54.583Z,46.88
2023-05-13T11:33:20.855Z,34.35
2023-05-13T11:35:47.274Z,27.02
2023-05-13T11:38:13.686Z,21.77
2023-05-13T11:40:43.489Z,17.73
2023-05-13T11:43:09.805Z,13.43
2023-05-13T11:45:36.148Z,13.02
2023-05-13T11:48:03.707Z,109.30
2023-05-13T11:50:30.841Z,273.75
2023-05-13T11:52:57.403Z,187.40
2023-05-13T11:55:23.779Z,145.73
2023-05-13T11:57:50.186Z,103.05
2023-05-13T12:00:16.723Z,90.55
2023-05-13T12:02:43.058Z,69.38
2023-05-13T12:05:09.498Z,47.42
2023-05-13T12:07:36.088Z,33.47
2023-05-13T12:10:02.349Z,23.15
2023-05-13T12:12:28.617Z,20.35
2023-05-13T12:14:54.957Z,19.27
2023-05-13T12:17:21.259Z,17.27
2023-05-13T12:19:47.528Z,13.98
2023-05-13T12:22:13.946Z,12.88
2023-05-13T12:24:40.179Z,11.73
2023-05-13T12:27:07.214Z,9.30
2023-05-13T12:29:34.468Z,7.97
2023-05-13T12:32:00.921Z,7.97
2023-05-13T12:34:27.156Z,7.00
2023-05-13T12:36:53.487Z,6.90
2023-05-13T12:39:20.353Z,7.40
2023-05-13T12:41:48.011Z,6.40
2023-05-13T12:44:14.284Z,6.68
2023-05-13T12:46:42.809Z,36.03
2023-05-13T12:49:10.191Z,384.02
2023-05-13T12:51:38.374Z,205.00
2023-05-13T12:54:04.684Z,132.15
2023-05-13T12:56:30.937Z,84.65
2023-05-13T12:58:57.234Z,63.92
2023-05-13T13:01:23.528Z,42.55
2023-05-13T13:03:51.291Z,28.92
2023-05-13T13:06:17.658Z,20.40
2023-05-13T13:08:45.073Z,17.75
2023-05-13T13:11:11.432Z,14.95
2023-05-13T13:13:39.385Z,11.20
2023-05-13T13:16:07.213Z,308.55
2023-05-13T13:18:33.621Z,352.92
2023-05-13T13:20:59.925Z,197.30
2023-05-13T13:23:26.166Z,144.07
2023-05-13T13:25:54.569Z,104.05
2023-05-13T13:28:20.899Z,83.55
2023-05-13T13:30:47.367Z,55.78
2023-05-13T13:33:13.761Z,42.63
2023-05-13T13:35:40.033Z,32.88
2023-05-13T13:38:06.290Z,23.10
2023-05-13T13:40:32.555Z,19.80
2023-05-13T13:42:59.364Z,15.20
2023-05-13T13:45:25.671Z,15.27
2023-05-13T13:47:53.505Z,128.57
2023-05-13T13:50:19.988Z,141.93
2023-05-13T13:52:46.559Z,125.20
2023-05-13T13:55:14.871Z,90.03
2023-05-13T13:57:41.131Z,78.35
2023-05-13T14:00:07.503Z,62.78
2023-05-13T14:02:34.027Z,50.53
2023-05-13T14:05:01.185Z,40.65
2023-05-13T14:07:27.569Z,33.38
2023-05-13T14:09:55.038Z,31.55
2023-05-13T14:12:21.280Z,28.48
2023-05-13T14:14:47.540Z,24.25
2023-05-13T14:17:14.510Z,22.77
2023-05-13T14:19:40.983Z,21.05
2023-05-13T14:22:07.873Z,17.55
2023-05-13T14:27:18.366Z,15.07
2023-05-13T14:29:44.626Z,24.27
2023-05-13T14:32:12.231Z,48.50
2023-05-13T14:37:22.101Z,34.95
2023-05-13T14:39:50.119Z,30.45
2023-05-13T14:45:07.880Z,23.70
2023-05-13T14:47:34.206Z,11.35
2023-05-13T14:50:00.500Z,14.30
2023-05-13T14:52:26.790Z,10.65
2023-05-13T14:54:55.268Z,10.68
2023-05-13T14:57:21.562Z,8.50
2023-05-13T14:59:47.988Z,13.05
2023-05-13T15:02:14.350Z,41.83
2023-05-13T15:04:40.659Z,114.88
2023-05-13T15:07:11.543Z,65.28
2023-05-13T15:09:37.841Z,73.90
2023-05-13T15:12:04.107Z,66.20
2023-05-13T15:14:31.118Z,55.00
2023-05-13T15:16:57.478Z,35.40
2023-05-13T15:19:24.120Z,21.17
2023-05-13T15:21:50.373Z,30.75
2023-05-13T15:24:16.803Z,25.83
2023-05-13T15:26:43.030Z,21.50
2023-05-13T15:29:09.298Z,25.95
2023-05-13T15:31:35.650Z,107.40
2023-05-13T15:34:03.817Z,125.10
2023-05-13T15:36:30.884Z,93.55
2023-05-13T15:38:57.239Z,37.13
2023-05-13T15:41:23.594Z,18.15
2023-05-13T15:43:49.846Z,25.77
2023-05-13T15:46:16.172Z,14.00
2023-05-13T15:48:45.208Z,11.52
2023-05-13T15:51:11.473Z,14.80
2023-05-13T15:53:38.332Z,14.40
2023-05-13T15:56:07.134Z,12.18
2023-05-13T15:58:33.703Z,10.27
2023-05-13T16:00:59.956Z,8.82
2023-05-13T16:03:27.389Z,9.23
2023-05-13T16:05:53.707Z,8.95
2023-05-13T16:08:19.959Z,9.02
2023-05-13T16:10:46.243Z,8.70
2023-05-13T16:13:12.596Z,8.55
2023-05-13T16:15:39.188Z,8.23
2023-05-13T16:18:06.290Z,8.52
2023-05-13T16:20:32.577Z,9.38
2023-05-13T16:22:59.986Z,10.85
2023-05-13T16:25:27.232Z,19.60
2023-05-13T16:27:53.453Z,16.35
2023-05-13T16:30:19.752Z,16.80
2023-05-13T16:32:48.011Z,13.10
2023-05-13T16:35:16.450Z,10.63
2023-05-13T16:37:44.799Z,9.98
2023-05-13T16:40:11.045Z,8.60
2023-05-13T16:42:37.301Z,8.75
2023-05-13T16:45:04.091Z,8.23
2023-05-13T16:47:31.287Z,7.38
2023-05-13T16:49:58.860Z,7.55
2023-05-13T16:52:25.102Z,8.75
2023-05-13T16:54:51.617Z,8.45
2023-05-13T16:57:19.167Z,8.25
2023-05-13T16:59:45.410Z,7.28
2023-05-13T17:02:11.666Z,7.40
2023-05-13T17:04:37.935Z,117.25
2023-05-13T17:07:04.191Z,46.15
2023-05-13T17:09:30.425Z,14.68
2023-05-13T17:11:56.831Z,8.70
2023-05-13T17:14:23.085Z,11.20
2023-05-13T17:16:49.376Z,9.15
2023-05-13T17:19:15.860Z,8.90
2023-05-13T17:21:42.234Z,10.23
2023-05-13T17:24:08.501Z,9.88
2023-05-13T17:26:36.210Z,9.52
2023-05-13T17:29:04.617Z,12.70
2023-05-13T17:31:30.891Z,15.52
2023-05-13T17:33:57.210Z,15.57
2023-05-13T17:36:23.474Z,12.30
2023-05-13T17:38:49.781Z,10.27
2023-05-13T17:41:16.030Z,9.98
2023-05-13T17:43:44.382Z,10.45
2023-05-13T17:46:11.468Z,11.65
2023-05-13T17:48:37.812Z,9.95
2023-05-13T17:51:04.220Z,9.18
2023-05-13T17:53:31.681Z,10.90
2023-05-13T17:56:00.062Z,8.25
2023-05-13T17:58:29.117Z,8.10
2023-05-13T18:00:56.731Z,9.10
2023-05-13T18:03:22.975Z,7.90
2023-05-13T18:05:49.276Z,8.05
2023-05-13T18:08:15.672Z,6.93
2023-05-13T18:10:42.656Z,7.35
2023-05-13T18:13:09.012Z,7.93
2023-05-13T18:15:35.234Z,6.80
2023-05-13T18:18:01.563Z,7.90
2023-05-13T18:20:28.001Z,11.85
2023-05-13T18:22:54.285Z,8.50
2023-05-13T18:25:20.558Z,7.10
2023-05-13T18:27:46.857Z,7.28
2023-05-13T18:30:14.044Z,7.95
2023-05-13T18:32:40.344Z,22.48
2023-05-13T18:35:06.641Z,28.90
2023-05-13T18:37:34.708Z,34.10
2023-05-13T18:40:01.057Z,27.70
2023-05-13T18:42:27.294Z,24.80
2023-05-13T18:44:55.325Z,24.20
2023-05-13T18:47:21.571Z,22.02
2023-05-13T18:49:47.840Z,21.90
2023-05-13T18:52:16.407Z,19.92
2023-05-13T18:54:42.644Z,19.45
2023-05-13T18:57:11.458Z,98.30
2023-05-13T18:59:37.782Z,87.60
2023-05-13T19:02:04.219Z,75.18
2023-05-13T19:04:30.692Z,69.80
2023-05-13T19:06:57.056Z,76.65
2023-05-13T19:09:23.391Z,81.20
2023-05-13T19:11:49.837Z,81.93
2023-05-13T19:14:16.301Z,123.72
2023-05-13T19:16:42.586Z,321.23
2023-05-13T19:19:08.868Z,273.02
2023-05-13T19:21:35.136Z,198.98
2023-05-13T19:24:01.371Z,209.85
2023-05-13T19:26:27.813Z,193.98
2023-05-13T19:28:54.665Z,182.85
2023-05-13T19:31:21.074Z,175.63
2023-05-13T19:33:47.433Z,164.30
2023-05-13T19:36:13.669Z,158.43
2023-05-13T19:38:42.430Z,154.25
2023-05-13T19:41:09.654Z,149.35
2023-05-13T19:43:35.942Z,142.82
2023-05-13T19:46:02.248Z,141.45
2023-05-13T19:48:29.887Z,138.00
2023-05-13T19:50:56.355Z,133.05
2023-05-13T19:53:26.047Z,125.70
2023-05-13T19:55:52.310Z,137.93
2023-05-13T19:58:18.571Z,327.52
2023-05-13T20:00:45.029Z,277.73
2023-05-13T20:03:14.544Z,252.27
2023-05-13T20:05:41.170Z,231.35
2023-05-13T20:08:09.242Z,221.75
2023-05-13T20:10:37.817Z,217.20
2023-05-13T20:13:04.136Z,206.77
2023-05-13T20:15:32.710Z,201.32
2023-05-13T20:17:59.106Z,195.90
2023-05-13T20:20:26.550Z,187.40
2023-05-13T20:22:52.985Z,185.30
2023-05-13T20:25:19.230Z,174.48
2023-05-13T20:27:45.462Z,170.00
2023-05-13T20:30:11.715Z,159.77
2023-05-13T20:32:37.972Z,158.13
2023-05-13T20:35:04.279Z,151.70
2023-05-13T20:37:32.715Z,150.80
2023-05-13T20:39:58.957Z,138.23
2023-05-13T20:42:25.322Z,224.32
2023-05-13T20:44:53.259Z,389.45
2023-05-13T20:47:19.557Z,326.77
2023-05-13T20:49:45.966Z,326.55
2023-05-13T20:52:12.300Z,305.90
2023-05-13T20:54:38.561Z,300.85
2023-05-13T20:57:04.887Z,304.70
2023-05-13T20:59:33.218Z,300.80
2023-05-13T21:01:59.601Z,575.55
2023-05-13T21:04:27.251Z,630.10
2023-05-13T21:06:54.038Z,532.70
2023-05-13T21:09:21.560Z,499.70
2023-05-13T21:11:48.912Z,475.33
2023-05-13T21:14:15.171Z,463.45
2023-05-13T21:16:41.867Z,440.92
2023-05-13T21:19:10.081Z,424.48
2023-05-13T21:21:39.535Z,407.47
2023-05-13T21:24:05.757Z,424.45
2023-05-13T21:26:32.060Z,557.90
2023-05-13T21:28:58.341Z,547.08
2023-05-13T21:31:25.712Z,518.25
2023-05-13T21:33:52.053Z,512.78
2023-05-13T21:36:18.373Z,509.63
2023-05-13T21:38:44.606Z,505.33
2023-05-13T21:41:10.969Z,502.08
2023-05-13T21:43:38.305Z,490.30
2023-05-13T21:46:04.617Z,485.27
2023-05-13T21:48:30.936Z,479.05
2023-05-13T21:50:57.861Z,484.70
2023-05-13T21:53:24.207Z,480.88
2023-05-13T21:55:52.077Z,460.80
2023-05-13T21:58:19.775Z,463.73
2023-05-13T22:00:47.463Z,459.83
2023-05-13T22:03:13.833Z,453.45
2023-05-13T22:05:40.094Z,433.55
2023-05-13T22:08:06.413Z,433.73
2023-05-13T22:10:32.747Z,425.30
2023-05-13T22:13:00.033Z,425.15
2023-05-13T22:15:26.307Z,406.40
2023-05-13T22:17:52.600Z,401.75
2023-05-13T22:20:19.951Z,390.65
2023-05-13T22:22:47.072Z,387.48
2023-05-13T22:25:13.301Z,374.35
2023-05-13T22:27:39.551Z,384.27
2023-05-13T22:30:05.858Z,367.27
2023-05-13T22:32:35.164Z,358.98
2023-05-13T22:35:01.481Z,359.02
2023-05-13T22:37:28.601Z,360.58
2023-05-13T22:39:56.540Z,348.45
2023-05-13T22:42:22.808Z,348.98
2023-05-13T22:44:49.089Z,347.67
2023-05-13T22:47:15.334Z,338.35
2023-05-13T22:49:43.542Z,331.88
2023-05-13T22:52:10.525Z,320.58
2023-05-13T22:54:36.899Z,320.25
2023-05-13T22:57:04.117Z,314.33
2023-05-13T22:59:30.339Z,317.83
2023-05-13T23:01:57.117Z,311.42
2023-05-13T23:04:30.572Z,309.90
2023-05-13T23:06:57.003Z,290.75
2023-05-13T23:09:23.356Z,289.40
2023-05-13T23:11:50.560Z,288.95
2023-05-13T23:14:18.457Z,287.23
2023-05-13T23:16:44.816Z,291.17
2023-05-13T23:19:11.092Z,287.02
2023-05-13T23:21:39.720Z,278.10
2023-05-13T23:24:10.268Z,273.10
2023-05-13T23:26:36.502Z,266.05
2023-05-13T23:29:07.082Z,256.85
2023-05-13T23:31:35.907Z,268.60
2023-05-13T23:34:02.157Z,252.50
2023-05-13T23:36:30.551Z,253.68
2023-05-13T23:38:56.778Z,260.13
2023-05-13T23:41:23.085Z,254.30
2023-05-13T23:43:50.786Z,249.57
2023-05-13T23:46:17.654Z,239.07
2023-05-13T23:48:43.990Z,234.15
2023-05-13T23:51:10.262Z,239.68
2023-05-13T23:53:36.481Z,246.60
2023-05-13T23:56:02.935Z,235.95
2023-05-13T23:58:29.152Z,225.82
